Country
Station

 

Weather  for  Safford, Safford Municipal Airport  -  United States    United States

  
27 °C (81 °F)
    
 
 

Current METAR for Safford, Safford Municipal Airport is :

KSAD 191451Z AUTO 15007KT 10SM CLR 27/14 A2988 RMK AO2 SLP057 T02670144 53012

 

This is a report for Safford, Safford Municipal Airport - United States.
 
The report was made 49 minutes ago, at 14:51 UTC .
The wind was blowing at a speed of 3.6 meters per second (8.1 miles per hour) from south/southeast (150°).
 
The temperature was 27 °C (81 °F), with a dew-point at 14 °C (57 °F).
The temperature felt like 27 °C (81 °F).
 
The atmospheric pressure was 1012 hPa (29.88 inHg).
The relative humidity was 44.8%.
 
The sky was clear.
 
The overall visibility was 16.1 kilometers (10.0 miles).
 

 
 
 
 

Country :   A   B   C   D   E   F   G   H   I   J   K   L   M   N   O   P   Q   R   S   T   U   V   W   Y   Z

 

Site Info  |  Disclaimer  |  Credits  |  Privacy
Contact us  |  Add to favorites
© 2013-2018 METARs - All rights reserved